sensor_id;sensor_type;location;lat;lon;timestamp;temperature;humidity
7684;DHT22;3884;48.616;12.872;2022-09-09T00:00:52;13.20;99.90
7684;DHT22;3884;48.616;12.872;2022-09-09T00:03:23;13.00;99.90
7684;DHT22;3884;48.616;12.872;2022-09-09T00:05:57;13.00;99.90
7684;DHT22;3884;48.616;12.872;2022-09-09T00:08:35;12.90;99.90
7684;DHT22;3884;48.616;12.872;2022-09-09T00:11:12;12.90;99.90
7684;DHT22;3884;48.616;12.872;2022-09-09T00:13:42;12.90;99.90
7684;DHT22;3884;48.616;12.872;2022-09-09T00:16:16;13.00;99.90
7684;DHT22;3884;48.616;12.872;2022-09-09T00:18:52;13.00;99.90
7684;DHT22;3884;48.616;12.872;2022-09-09T00:21:25;13.00;99.90
7684;DHT22;3884;48.616;12.872;2022-09-09T00:23:58;13.10;99.90
7684;DHT22;3884;48.616;12.872;2022-09-09T00:26:31;13.00;99.90
7684;DHT22;3884;48.616;12.872;2022-09-09T00:29:05;13.10;99.90
7684;DHT22;3884;48.616;12.872;2022-09-09T00:31:36;13.20;99.90
7684;DHT22;3884;48.616;12.872;2022-09-09T00:34:11;13.20;99.90
7684;DHT22;3884;48.616;12.872;2022-09-09T00:36:41;13.20;99.90
7684;DHT22;3884;48.616;12.872;2022-09-09T00:39:23;13.20;99.90
7684;DHT22;3884;48.616;12.872;2022-09-09T00:42:02;13.30;99.90
7684;DHT22;3884;48.616;12.872;2022-09-09T00:44:37;13.10;99.90
7684;DHT22;3884;48.616;12.872;2022-09-09T00:47:17;13.20;99.90
7684;DHT22;3884;48.616;12.872;2022-09-09T00:49:57;13.10;99.90
7684;DHT22;3884;48.616;12.872;2022-09-09T00:52:35;13.20;99.90
7684;DHT22;3884;48.616;12.872;2022-09-09T00:55:08;13.10;99.90
7684;DHT22;3884;48.616;12.872;2022-09-09T00:57:38;13.10;99.90
7684;DHT22;3884;48.616;12.872;2022-09-09T01:00:19;12.80;99.90
7684;DHT22;3884;48.616;12.872;2022-09-09T01:02:53;12.80;99.90
7684;DHT22;3884;48.616;12.872;2022-09-09T01:05:33;12.90;99.90
7684;DHT22;3884;48.616;12.872;2022-09-09T01:08:08;13.00;99.90
7684;DHT22;3884;48.616;12.872;2022-09-09T01:10:43;12.90;99.90
7684;DHT22;3884;48.616;12.872;2022-09-09T01:13:15;12.90;99.90
7684;DHT22;3884;48.616;12.872;2022-09-09T01:15:44;12.90;99.90
7684;DHT22;3884;48.616;12.872;2022-09-09T01:18:16;12.80;99.90
7684;DHT22;3884;48.616;12.872;2022-09-09T01:20:51;12.80;99.90
7684;DHT22;3884;48.616;12.872;2022-09-09T01:23:43;12.70;99.90
7684;DHT22;3884;48.616;12.872;2022-09-09T01:26:26;12.60;99.90
7684;DHT22;3884;48.616;12.872;2022-09-09T01:28:58;12.70;99.90
7684;DHT22;3884;48.616;12.872;2022-09-09T01:31:36;12.80;99.90
7684;DHT22;3884;48.616;12.872;2022-09-09T01:34:09;12.50;99.90
7684;DHT22;3884;48.616;12.872;2022-09-09T01:36:42;12.60;99.90
7684;DHT22;3884;48.616;12.872;2022-09-09T01:39:12;12.50;99.90
7684;DHT22;3884;48.616;12.872;2022-09-09T01:41:41;12.50;99.90
7684;DHT22;3884;48.616;12.872;2022-09-09T01:44:11;12.40;99.90
7684;DHT22;3884;48.616;12.872;2022-09-09T01:46:41;12.50;99.90
7684;DHT22;3884;48.616;12.872;2022-09-09T01:49:16;12.60;99.90
7684;DHT22;3884;48.616;12.872;2022-09-09T01:51:44;12.50;99.90
7684;DHT22;3884;48.616;12.872;2022-09-09T01:54:13;12.50;99.90
7684;DHT22;3884;48.616;12.872;2022-09-09T01:56:50;12.50;99.90
7684;DHT22;3884;48.616;12.872;2022-09-09T01:59:33;12.50;99.90
7684;DHT22;3884;48.616;12.872;2022-09-09T02:02:10;12.30;99.90
7684;DHT22;3884;48.616;12.872;2022-09-09T02:04:42;12.30;99.90
7684;DHT22;3884;48.616;12.872;2022-09-09T02:07:30;12.20;99.90
7684;DHT22;3884;48.616;12.872;2022-09-09T02:10:08;12.00;99.90
7684;DHT22;3884;48.616;12.872;2022-09-09T02:12:41;12.00;99.90
7684;DHT22;3884;48.616;12.872;2022-09-09T02:15:17;12.10;99.90
7684;DHT22;3884;48.616;12.872;2022-09-09T02:17:49;12.30;99.90
7684;DHT22;3884;48.616;12.872;2022-09-09T02:20:19;12.20;99.90
7684;DHT22;3884;48.616;12.872;2022-09-09T02:22:57;12.20;99.90
7684;DHT22;3884;48.616;12.872;2022-09-09T02:25:28;12.30;99.90
7684;DHT22;3884;48.616;12.872;2022-09-09T02:28:06;12.20;99.90
7684;DHT22;3884;48.616;12.872;2022-09-09T02:30:37;12.20;99.90
7684;DHT22;3884;48.616;12.872;2022-09-09T02:33:07;12.20;99.90
7684;DHT22;3884;48.616;12.872;2022-09-09T02:35:45;12.20;99.90
7684;DHT22;3884;48.616;12.872;2022-09-09T02:38:17;12.20;99.90
7684;DHT22;3884;48.616;12.872;2022-09-09T02:40:55;12.10;99.90
7684;DHT22;3884;48.616;12.872;2022-09-09T02:43:25;11.90;99.90
7684;DHT22;3884;48.616;12.872;2022-09-09T02:46:00;11.80;99.90
7684;DHT22;3884;48.616;12.872;2022-09-09T02:48:35;11.60;99.90
7684;DHT22;3884;48.616;12.872;2022-09-09T02:51:08;11.70;99.90
7684;DHT22;3884;48.616;12.872;2022-09-09T02:53:42;11.70;99.90
7684;DHT22;3884;48.616;12.872;2022-09-09T02:56:14;11.80;99.90
7684;DHT22;3884;48.616;12.872;2022-09-09T02:58:46;11.90;99.90
7684;DHT22;3884;48.616;12.872;2022-09-09T03:01:13;12.00;99.90
7684;DHT22;3884;48.616;12.872;2022-09-09T03:03:40;11.80;99.90
7684;DHT22;3884;48.616;12.872;2022-09-09T03:06:12;11.90;99.90
7684;DHT22;3884;48.616;12.872;2022-09-09T03:08:40;11.80;99.90
7684;DHT22;3884;48.616;12.872;2022-09-09T03:11:08;11.80;99.90
7684;DHT22;3884;48.616;12.872;2022-09-09T03:13:36;11.90;99.90
7684;DHT22;3884;48.616;12.872;2022-09-09T03:16:06;11.90;99.90
7684;DHT22;3884;48.616;12.872;2022-09-09T03:18:39;11.80;99.90
7684;DHT22;3884;48.616;12.872;2022-09-09T03:21:08;11.70;99.90
7684;DHT22;3884;48.616;12.872;2022-09-09T03:23:37;11.60;99.90
7684;DHT22;3884;48.616;12.872;2022-09-09T03:26:04;11.70;99.90
7684;DHT22;3884;48.616;12.872;2022-09-09T03:28:39;11.80;99.90
7684;DHT22;3884;48.616;12.872;2022-09-09T03:31:08;11.70;99.90
7684;DHT22;3884;48.616;12.872;2022-09-09T03:33:39;11.70;99.90
7684;DHT22;3884;48.616;12.872;2022-09-09T03:36:07;11.70;99.90
7684;DHT22;3884;48.616;12.872;2022-09-09T03:38:36;11.70;99.90
7684;DHT22;3884;48.616;12.872;2022-09-09T03:41:03;11.70;99.90
7684;DHT22;3884;48.616;12.872;2022-09-09T03:43:33;11.70;99.90
7684;DHT22;3884;48.616;12.872;2022-09-09T03:46:00;11.70;99.90
7684;DHT22;3884;48.616;12.872;2022-09-09T03:48:30;11.60;99.90
7684;DHT22;3884;48.616;12.872;2022-09-09T03:50:57;11.60;99.90
7684;DHT22;3884;48.616;12.872;2022-09-09T03:53:27;11.50;99.90
7684;DHT22;3884;48.616;12.872;2022-09-09T03:55:56;11.60;99.90
7684;DHT22;3884;48.616;12.872;2022-09-09T03:58:26;11.70;99.90
7684;DHT22;3884;48.616;12.872;2022-09-09T04:01:00;11.80;99.90
7684;DHT22;3884;48.616;12.872;2022-09-09T04:03:30;11.80;99.90
7684;DHT22;3884;48.616;12.872;2022-09-09T04:05:59;11.80;99.90
7684;DHT22;3884;48.616;12.872;2022-09-09T04:08:29;11.80;99.90
7684;DHT22;3884;48.616;12.872;2022-09-09T04:10:57;11.70;99.90
7684;DHT22;3884;48.616;12.872;2022-09-09T04:13:25;11.70;99.90
7684;DHT22;3884;48.616;12.872;2022-09-09T04:15:54;11.70;99.90
7684;DHT22;3884;48.616;12.872;2022-09-09T04:18:22;11.50;99.90
7684;DHT22;3884;48.616;12.872;2022-09-09T04:20:52;11.60;99.90
7684;DHT22;3884;48.616;12.872;2022-09-09T04:23:22;11.60;99.90
7684;DHT22;3884;48.616;12.872;2022-09-09T04:25:51;11.60;99.90
7684;DHT22;3884;48.616;12.872;2022-09-09T04:28:20;11.70;99.90
7684;DHT22;3884;48.616;12.872;2022-09-09T04:30:50;11.60;99.90
7684;DHT22;3884;48.616;12.872;2022-09-09T04:33:18;11.70;99.90
7684;DHT22;3884;48.616;12.872;2022-09-09T04:35:49;11.60;99.90
7684;DHT22;3884;48.616;12.872;2022-09-09T04:38:20;11.80;99.90
7684;DHT22;3884;48.616;12.872;2022-09-09T04:40:50;11.90;99.90
7684;DHT22;3884;48.616;12.872;2022-09-09T04:43:20;11.90;99.90
7684;DHT22;3884;48.616;12.872;2022-09-09T04:45:49;11.90;99.90
7684;DHT22;3884;48.616;12.872;2022-09-09T04:48:19;11.90;99.90
7684;DHT22;3884;48.616;12.872;2022-09-09T04:50:54;11.90;99.90
7684;DHT22;3884;48.616;12.872;2022-09-09T04:53:22;11.90;99.90
7684;DHT22;3884;48.616;12.872;2022-09-09T04:55:51;11.90;99.90
7684;DHT22;3884;48.616;12.872;2022-09-09T04:58:19;11.70;99.90
7684;DHT22;3884;48.616;12.872;2022-09-09T05:00:48;11.80;99.90
7684;DHT22;3884;48.616;12.872;2022-09-09T05:03:17;11.80;99.90
7684;DHT22;3884;48.616;12.872;2022-09-09T05:05:45;11.70;99.90
7684;DHT22;3884;48.616;12.872;2022-09-09T05:08:13;11.80;99.90
7684;DHT22;3884;48.616;12.872;2022-09-09T05:10:42;11.60;99.90
7684;DHT22;3884;48.616;12.872;2022-09-09T05:13:10;11.70;99.90
7684;DHT22;3884;48.616;12.872;2022-09-09T05:15:37;11.80;99.90
7684;DHT22;3884;48.616;12.872;2022-09-09T05:18:04;11.90;99.90
7684;DHT22;3884;48.616;12.872;2022-09-09T05:20:31;12.00;99.90
7684;DHT22;3884;48.616;12.872;2022-09-09T05:23:00;12.10;99.90
7684;DHT22;3884;48.616;12.872;2022-09-09T05:25:29;12.10;99.90
7684;DHT22;3884;48.616;12.872;2022-09-09T05:27:58;12.20;99.90
7684;DHT22;3884;48.616;12.872;2022-09-09T05:30:25;12.10;99.90
7684;DHT22;3884;48.616;12.872;2022-09-09T05:32:55;12.20;99.90
7684;DHT22;3884;48.616;12.872;2022-09-09T05:35:22;12.30;99.90
7684;DHT22;3884;48.616;12.872;2022-09-09T05:37:49;12.40;99.90
7684;DHT22;3884;48.616;12.872;2022-09-09T05:40:16;12.30;99.90
7684;DHT22;3884;48.616;12.872;2022-09-09T05:42:43;12.30;99.90
7684;DHT22;3884;48.616;12.872;2022-09-09T05:45:11;12.40;99.90
7684;DHT22;3884;48.616;12.872;2022-09-09T05:47:38;12.40;99.90
7684;DHT22;3884;48.616;12.872;2022-09-09T05:50:09;12.50;99.90
7684;DHT22;3884;48.616;12.872;2022-09-09T05:52:36;12.70;99.90
7684;DHT22;3884;48.616;12.872;2022-09-09T05:55:06;12.90;99.90
7684;DHT22;3884;48.616;12.872;2022-09-09T05:57:33;13.00;99.90
7684;DHT22;3884;48.616;12.872;2022-09-09T06:00:02;13.10;99.90
7684;DHT22;3884;48.616;12.872;2022-09-09T06:02:40;13.20;99.90
7684;DHT22;3884;48.616;12.872;2022-09-09T06:05:10;13.30;99.90
7684;DHT22;3884;48.616;12.872;2022-09-09T06:07:38;13.30;99.90
7684;DHT22;3884;48.616;12.872;2022-09-09T06:10:08;13.30;99.90
7684;DHT22;3884;48.616;12.872;2022-09-09T06:12:35;13.40;99.90
7684;DHT22;3884;48.616;12.872;2022-09-09T06:15:03;13.50;99.90
7684;DHT22;3884;48.616;12.872;2022-09-09T06:17:31;13.50;99.90
7684;DHT22;3884;48.616;12.872;2022-09-09T06:19:59;13.60;99.90
7684;DHT22;3884;48.616;12.872;2022-09-09T06:22:26;13.60;99.90
7684;DHT22;3884;48.616;12.872;2022-09-09T06:24:53;13.60;99.90
7684;DHT22;3884;48.616;12.872;2022-09-09T06:27:21;13.70;99.90
7684;DHT22;3884;48.616;12.872;2022-09-09T06:29:48;13.60;99.90
7684;DHT22;3884;48.616;12.872;2022-09-09T06:32:15;13.70;99.90
7684;DHT22;3884;48.616;12.872;2022-09-09T06:34:43;13.70;99.90
7684;DHT22;3884;48.616;12.872;2022-09-09T06:37:12;13.70;99.90
7684;DHT22;3884;48.616;12.872;2022-09-09T06:39:45;13.80;99.90
7684;DHT22;3884;48.616;12.872;2022-09-09T06:42:12;13.80;99.90
7684;DHT22;3884;48.616;12.872;2022-09-09T06:44:48;13.90;99.90
7684;DHT22;3884;48.616;12.872;2022-09-09T06:47:25;14.00;99.90
7684;DHT22;3884;48.616;12.872;2022-09-09T06:49:54;14.10;99.90
7684;DHT22;3884;48.616;12.872;2022-09-09T06:52:23;14.20;99.90
7684;DHT22;3884;48.616;12.872;2022-09-09T06:54:50;14.30;99.90
7684;DHT22;3884;48.616;12.872;2022-09-09T06:57:19;14.40;99.90
7684;DHT22;3884;48.616;12.872;2022-09-09T06:59:46;14.40;99.90
7684;DHT22;3884;48.616;12.872;2022-09-09T07:02:13;14.40;99.90
7684;DHT22;3884;48.616;12.872;2022-09-09T07:04:40;14.30;99.90
7684;DHT22;3884;48.616;12.872;2022-09-09T07:07:07;14.40;99.90
7684;DHT22;3884;48.616;12.872;2022-09-09T07:09:38;14.40;99.90
7684;DHT22;3884;48.616;12.872;2022-09-09T07:12:05;14.50;99.90
7684;DHT22;3884;48.616;12.872;2022-09-09T07:14:34;14.60;99.90
7684;DHT22;3884;48.616;12.872;2022-09-09T07:17:06;14.60;99.90
7684;DHT22;3884;48.616;12.872;2022-09-09T07:19:37;14.50;99.90
7684;DHT22;3884;48.616;12.872;2022-09-09T07:22:05;14.50;99.90
7684;DHT22;3884;48.616;12.872;2022-09-09T07:24:33;14.40;99.90
7684;DHT22;3884;48.616;12.872;2022-09-09T07:27:01;14.50;99.90
7684;DHT22;3884;48.616;12.872;2022-09-09T07:29:29;14.50;99.90
7684;DHT22;3884;48.616;12.872;2022-09-09T07:31:56;14.50;99.90
7684;DHT22;3884;48.616;12.872;2022-09-09T07:34:29;14.50;99.90
7684;DHT22;3884;48.616;12.872;2022-09-09T07:36:56;14.60;99.90
7684;DHT22;3884;48.616;12.872;2022-09-09T07:39:24;14.70;99.90
7684;DHT22;3884;48.616;12.872;2022-09-09T07:41:53;14.90;99.90
7684;DHT22;3884;48.616;12.872;2022-09-09T07:44:24;15.00;99.90
7684;DHT22;3884;48.616;12.872;2022-09-09T07:47:01;15.20;99.90
7684;DHT22;3884;48.616;12.872;2022-09-09T07:49:34;15.30;99.90
7684;DHT22;3884;48.616;12.872;2022-09-09T07:52:03;15.20;99.90
7684;DHT22;3884;48.616;12.872;2022-09-09T07:54:30;15.30;99.90
7684;DHT22;3884;48.616;12.872;2022-09-09T07:56:59;15.20;99.90
7684;DHT22;3884;48.616;12.872;2022-09-09T07:59:30;15.10;99.90
7684;DHT22;3884;48.616;12.872;2022-09-09T08:01:58;15.10;99.90
7684;DHT22;3884;48.616;12.872;2022-09-09T08:04:28;15.00;99.90
7684;DHT22;3884;48.616;12.872;2022-09-09T08:06:57;14.90;99.90
7684;DHT22;3884;48.616;12.872;2022-09-09T08:09:26;15.00;99.90
7684;DHT22;3884;48.616;12.872;2022-09-09T08:12:00;15.10;99.90
7684;DHT22;3884;48.616;12.872;2022-09-09T08:14:30;15.00;99.90
7684;DHT22;3884;48.616;12.872;2022-09-09T08:16:58;15.10;99.90
7684;DHT22;3884;48.616;12.872;2022-09-09T08:19:27;15.10;99.90
7684;DHT22;3884;48.616;12.872;2022-09-09T08:21:55;15.00;99.90
7684;DHT22;3884;48.616;12.872;2022-09-09T08:24:22;15.00;99.90
7684;DHT22;3884;48.616;12.872;2022-09-09T08:26:51;15.00;99.90
7684;DHT22;3884;48.616;12.872;2022-09-09T08:29:22;14.90;99.90
7684;DHT22;3884;48.616;12.872;2022-09-09T08:31:54;14.90;99.90
7684;DHT22;3884;48.616;12.872;2022-09-09T08:34:23;15.00;99.90
7684;DHT22;3884;48.616;12.872;2022-09-09T08:36:53;15.20;99.90
7684;DHT22;3884;48.616;12.872;2022-09-09T08:39:25;15.20;99.90
7684;DHT22;3884;48.616;12.872;2022-09-09T08:42:05;15.20;99.90
7684;DHT22;3884;48.616;12.872;2022-09-09T08:44:55;15.40;99.90
7684;DHT22;3884;48.616;12.872;2022-09-09T08:47:34;15.60;99.90
7684;DHT22;3884;48.616;12.872;2022-09-09T08:50:19;15.70;99.90
7684;DHT22;3884;48.616;12.872;2022-09-09T08:52:55;15.80;99.90
7684;DHT22;3884;48.616;12.872;2022-09-09T08:55:31;15.80;99.90
7684;DHT22;3884;48.616;12.872;2022-09-09T08:58:09;15.90;99.90
7684;DHT22;3884;48.616;12.872;2022-09-09T09:00:46;16.20;99.90
7684;DHT22;3884;48.616;12.872;2022-09-09T09:03:23;16.10;99.90
7684;DHT22;3884;48.616;12.872;2022-09-09T09:05:59;16.00;99.90
7684;DHT22;3884;48.616;12.872;2022-09-09T09:08:32;15.80;99.90
7684;DHT22;3884;48.616;12.872;2022-09-09T09:11:00;15.70;99.90
7684;DHT22;3884;48.616;12.872;2022-09-09T09:13:34;15.80;99.90
7684;DHT22;3884;48.616;12.872;2022-09-09T09:16:10;15.80;99.90
7684;DHT22;3884;48.616;12.872;2022-09-09T09:18:41;15.70;99.90
7684;DHT22;3884;48.616;12.872;2022-09-09T09:21:12;15.80;99.90
7684;DHT22;3884;48.616;12.872;2022-09-09T09:23:48;15.80;99.90
7684;DHT22;3884;48.616;12.872;2022-09-09T09:26:17;15.80;99.90
7684;DHT22;3884;48.616;12.872;2022-09-09T09:28:45;15.80;99.90
7684;DHT22;3884;48.616;12.872;2022-09-09T09:31:15;15.90;99.90
7684;DHT22;3884;48.616;12.872;2022-09-09T09:33:49;16.00;99.90
7684;DHT22;3884;48.616;12.872;2022-09-09T09:36:20;16.20;99.90
7684;DHT22;3884;48.616;12.872;2022-09-09T09:38:54;16.20;99.90
7684;DHT22;3884;48.616;12.872;2022-09-09T09:41:30;16.30;99.90
7684;DHT22;3884;48.616;12.872;2022-09-09T09:43:58;16.30;99.90
7684;DHT22;3884;48.616;12.872;2022-09-09T09:46:28;16.40;99.90
7684;DHT22;3884;48.616;12.872;2022-09-09T09:49:09;16.40;99.90
7684;DHT22;3884;48.616;12.872;2022-09-09T09:51:39;16.40;99.90
7684;DHT22;3884;48.616;12.872;2022-09-09T09:54:14;16.50;99.90
7684;DHT22;3884;48.616;12.872;2022-09-09T09:56:45;16.50;99.90
7684;DHT22;3884;48.616;12.872;2022-09-09T09:59:21;16.60;99.90
7684;DHT22;3884;48.616;12.872;2022-09-09T10:01:48;16.60;99.90
7684;DHT22;3884;48.616;12.872;2022-09-09T10:04:18;16.70;99.90
7684;DHT22;3884;48.616;12.872;2022-09-09T10:06:47;16.80;99.90
7684;DHT22;3884;48.616;12.872;2022-09-09T10:09:23;16.80;99.90
7684;DHT22;3884;48.616;12.872;2022-09-09T10:11:55;16.80;99.90
7684;DHT22;3884;48.616;12.872;2022-09-09T10:14:31;16.80;99.90
7684;DHT22;3884;48.616;12.872;2022-09-09T10:17:09;16.80;99.90
7684;DHT22;3884;48.616;12.872;2022-09-09T10:19:45;16.70;99.90
7684;DHT22;3884;48.616;12.872;2022-09-09T10:22:25;16.70;99.90
7684;DHT22;3884;48.616;12.872;2022-09-09T10:25:17;16.70;99.90
7684;DHT22;3884;48.616;12.872;2022-09-09T10:27:55;16.70;99.90
7684;DHT22;3884;48.616;12.872;2022-09-09T10:30:35;16.80;99.90
7684;DHT22;3884;48.616;12.872;2022-09-09T10:33:10;16.70;99.90
7684;DHT22;3884;48.616;12.872;2022-09-09T10:35:47;16.70;99.90
7684;DHT22;3884;48.616;12.872;2022-09-09T10:38:21;16.60;99.90
7684;DHT22;3884;48.616;12.872;2022-09-09T10:41:26;16.60;99.90
7684;DHT22;3884;48.616;12.872;2022-09-09T10:47:22;16.70;99.90
7684;DHT22;3884;48.616;12.872;2022-09-09T10:50:12;16.70;99.90
7684;DHT22;3884;48.616;12.872;2022-09-09T10:52:53;16.70;99.90
7684;DHT22;3884;48.616;12.872;2022-09-09T10:55:26;16.60;99.90
7684;DHT22;3884;48.616;12.872;2022-09-09T10:57:56;16.70;99.90
7684;DHT22;3884;48.616;12.872;2022-09-09T11:00:29;16.60;99.90
7684;DHT22;3884;48.616;12.872;2022-09-09T11:03:00;16.60;99.90
7684;DHT22;3884;48.616;12.872;2022-09-09T11:05:31;16.50;99.90
7684;DHT22;3884;48.616;12.872;2022-09-09T11:08:04;16.50;99.90
7684;DHT22;3884;48.616;12.872;2022-09-09T11:10:38;16.60;99.90
7684;DHT22;3884;48.616;12.872;2022-09-09T11:13:11;16.70;99.90
7684;DHT22;3884;48.616;12.872;2022-09-09T11:15:43;16.70;99.90
7684;DHT22;3884;48.616;12.872;2022-09-09T11:18:15;16.90;99.90
7684;DHT22;3884;48.616;12.872;2022-09-09T11:20:44;16.90;99.90
7684;DHT22;3884;48.616;12.872;2022-09-09T11:23:18;16.80;99.90
7684;DHT22;3884;48.616;12.872;2022-09-09T11:25:51;16.80;99.90
7684;DHT22;3884;48.616;12.872;2022-09-09T11:28:36;16.80;99.90
7684;DHT22;3884;48.616;12.872;2022-09-09T11:31:20;16.90;99.90
7684;DHT22;3884;48.616;12.872;2022-09-09T11:34:01;17.00;99.90
7684;DHT22;3884;48.616;12.872;2022-09-09T11:36:59;17.10;99.90
7684;DHT22;3884;48.616;12.872;2022-09-09T11:39:59;17.10;99.90
7684;DHT22;3884;48.616;12.872;2022-09-09T11:42:27;17.10;99.90
7684;DHT22;3884;48.616;12.872;2022-09-09T11:44:54;17.10;99.90
7684;DHT22;3884;48.616;12.872;2022-09-09T11:47:24;17.20;99.90
7684;DHT22;3884;48.616;12.872;2022-09-09T11:49:55;17.20;99.90
7684;DHT22;3884;48.616;12.872;2022-09-09T11:52:34;17.10;99.90
7684;DHT22;3884;48.616;12.872;2022-09-09T11:55:11;17.20;99.90
7684;DHT22;3884;48.616;12.872;2022-09-09T11:57:38;17.10;99.90
7684;DHT22;3884;48.616;12.872;2022-09-09T12:02:49;17.20;99.90
7684;DHT22;3884;48.616;12.872;2022-09-09T12:05:16;17.30;99.90
7684;DHT22;3884;48.616;12.872;2022-09-09T12:07:50;17.30;99.90
7684;DHT22;3884;48.616;12.872;2022-09-09T12:10:27;17.30;99.90
7684;DHT22;3884;48.616;12.872;2022-09-09T12:13:08;17.40;99.90
7684;DHT22;3884;48.616;12.872;2022-09-09T12:15:47;17.30;99.90
7684;DHT22;3884;48.616;12.872;2022-09-09T12:18:21;17.20;99.90
7684;DHT22;3884;48.616;12.872;2022-09-09T12:20:57;17.20;99.90
7684;DHT22;3884;48.616;12.872;2022-09-09T12:23:35;17.10;99.90
7684;DHT22;3884;48.616;12.872;2022-09-09T12:26:22;17.10;99.90
7684;DHT22;3884;48.616;12.872;2022-09-09T12:28:57;17.00;99.90
7684;DHT22;3884;48.616;12.872;2022-09-09T12:31:30;17.00;99.90
7684;DHT22;3884;48.616;12.872;2022-09-09T12:34:13;17.00;99.90
7684;DHT22;3884;48.616;12.872;2022-09-09T12:36:42;17.10;99.90
7684;DHT22;3884;48.616;12.872;2022-09-09T12:39:17;17.20;99.90
7684;DHT22;3884;48.616;12.872;2022-09-09T12:41:53;17.10;99.90
7684;DHT22;3884;48.616;12.872;2022-09-09T12:44:24;17.10;99.90
7684;DHT22;3884;48.616;12.872;2022-09-09T12:46:51;17.10;99.90
7684;DHT22;3884;48.616;12.872;2022-09-09T12:49:29;17.20;99.90
7684;DHT22;3884;48.616;12.872;2022-09-09T12:52:02;17.30;99.90
7684;DHT22;3884;48.616;12.872;2022-09-09T12:54:31;17.40;99.90
7684;DHT22;3884;48.616;12.872;2022-09-09T12:57:00;17.40;99.90
7684;DHT22;3884;48.616;12.872;2022-09-09T12:59:35;17.60;99.90
7684;DHT22;3884;48.616;12.872;2022-09-09T13:02:02;17.80;99.90
7684;DHT22;3884;48.616;12.872;2022-09-09T13:04:29;17.80;99.90
7684;DHT22;3884;48.616;12.872;2022-09-09T13:07:05;17.80;99.90
7684;DHT22;3884;48.616;12.872;2022-09-09T13:09:42;17.90;99.90
7684;DHT22;3884;48.616;12.872;2022-09-09T13:12:15;17.90;99.90
7684;DHT22;3884;48.616;12.872;2022-09-09T13:14:44;18.00;99.90
7684;DHT22;3884;48.616;12.872;2022-09-09T13:17:19;18.00;99.90
7684;DHT22;3884;48.616;12.872;2022-09-09T13:19:47;18.20;99.90
7684;DHT22;3884;48.616;12.872;2022-09-09T13:22:29;18.40;99.90
7684;DHT22;3884;48.616;12.872;2022-09-09T13:25:04;18.40;99.90
7684;DHT22;3884;48.616;12.872;2022-09-09T13:27:33;18.30;99.90
7684;DHT22;3884;48.616;12.872;2022-09-09T13:30:20;18.20;99.90
7684;DHT22;3884;48.616;12.872;2022-09-09T13:32:58;18.20;99.90
7684;DHT22;3884;48.616;12.872;2022-09-09T13:35:26;18.40;99.90
7684;DHT22;3884;48.616;12.872;2022-09-09T13:37:53;18.60;99.90
7684;DHT22;3884;48.616;12.872;2022-09-09T13:40:21;18.50;99.90
7684;DHT22;3884;48.616;12.872;2022-09-09T13:42:51;18.80;99.90
7684;DHT22;3884;48.616;12.872;2022-09-09T13:45:20;19.10;99.90
7684;DHT22;3884;48.616;12.872;2022-09-09T13:47:48;19.60;99.90
7684;DHT22;3884;48.616;12.872;2022-09-09T13:50:22;20.00;1.00
7684;DHT22;3884;48.616;12.872;2022-09-09T13:52:50;20.40;99.90
7684;DHT22;3884;48.616;12.872;2022-09-09T13:55:19;20.60;99.90
7684;DHT22;3884;48.616;12.872;2022-09-09T13:57:52;20.40;43.50
7684;DHT22;3884;48.616;12.872;2022-09-09T14:00:19;20.20;99.90
7684;DHT22;3884;48.616;12.872;2022-09-09T14:02:46;20.20;99.90
7684;DHT22;3884;48.616;12.872;2022-09-09T14:05:13;20.00;1.00
7684;DHT22;3884;48.616;12.872;2022-09-09T14:07:41;20.10;99.90
7684;DHT22;3884;48.616;12.872;2022-09-09T14:10:09;20.20;1.00
7684;DHT22;3884;48.616;12.872;2022-09-09T14:12:36;20.40;99.90
7684;DHT22;3884;48.616;12.872;2022-09-09T14:15:06;20.50;99.90
7684;DHT22;3884;48.616;12.872;2022-09-09T14:17:33;20.80;99.90
7684;DHT22;3884;48.616;12.872;2022-09-09T14:20:02;20.70;99.90
7684;DHT22;3884;48.616;12.872;2022-09-09T14:22:29;20.70;99.90
7684;DHT22;3884;48.616;12.872;2022-09-09T14:24:56;20.70;1.00
7684;DHT22;3884;48.616;12.872;2022-09-09T14:27:23;21.00;1.00
7684;DHT22;3884;48.616;12.872;2022-09-09T14:29:51;21.20;1.00
7684;DHT22;3884;48.616;12.872;2022-09-09T14:32:19;20.60;99.90
7684;DHT22;3884;48.616;12.872;2022-09-09T14:34:47;20.40;1.00
7684;DHT22;3884;48.616;12.872;2022-09-09T14:37:15;20.90;99.90
7684;DHT22;3884;48.616;12.872;2022-09-09T14:39:42;21.10;1.00
7684;DHT22;3884;48.616;12.872;2022-09-09T14:42:09;21.30;49.80
7684;DHT22;3884;48.616;12.872;2022-09-09T14:44:37;21.40;1.00
7684;DHT22;3884;48.616;12.872;2022-09-09T14:47:04;21.30;1.00
7684;DHT22;3884;48.616;12.872;2022-09-09T14:49:32;21.10;99.90
7684;DHT22;3884;48.616;12.872;2022-09-09T14:52:00;21.20;74.60
7684;DHT22;3884;48.616;12.872;2022-09-09T14:54:27;21.40;15.40
7684;DHT22;3884;48.616;12.872;2022-09-09T14:56:54;21.20;1.00
7684;DHT22;3884;48.616;12.872;2022-09-09T14:59:21;20.60;1.00
7684;DHT22;3884;48.616;12.872;2022-09-09T15:01:48;20.40;1.00
7684;DHT22;3884;48.616;12.872;2022-09-09T15:04:15;20.20;99.90
7684;DHT22;3884;48.616;12.872;2022-09-09T15:06:45;19.60;99.40
7684;DHT22;3884;48.616;12.872;2022-09-09T15:09:13;19.50;99.90
7684;DHT22;3884;48.616;12.872;2022-09-09T15:11:40;19.50;94.20
7684;DHT22;3884;48.616;12.872;2022-09-09T15:14:09;19.20;99.50
7684;DHT22;3884;48.616;12.872;2022-09-09T15:16:38;19.40;1.00
7684;DHT22;3884;48.616;12.872;2022-09-09T15:19:05;19.20;99.90
7684;DHT22;3884;48.616;12.872;2022-09-09T15:21:34;19.00;99.90
7684;DHT22;3884;48.616;12.872;2022-09-09T15:24:03;18.80;42.40
7684;DHT22;3884;48.616;12.872;2022-09-09T15:26:32;19.40;99.90
7684;DHT22;3884;48.616;12.872;2022-09-09T15:28:59;19.10;1.00
7684;DHT22;3884;48.616;12.872;2022-09-09T15:31:28;19.50;99.90
7684;DHT22;3884;48.616;12.872;2022-09-09T15:33:56;19.80;99.90
7684;DHT22;3884;48.616;12.872;2022-09-09T15:36:27;19.90;99.90
7684;DHT22;3884;48.616;12.872;2022-09-09T15:38:55;19.70;1.00
7684;DHT22;3884;48.616;12.872;2022-09-09T15:41:23;19.40;1.00
7684;DHT22;3884;48.616;12.872;2022-09-09T15:43:52;19.30;99.90
7684;DHT22;3884;48.616;12.872;2022-09-09T15:46:26;19.40;1.00
7684;DHT22;3884;48.616;12.872;2022-09-09T15:48:54;19.60;99.90
7684;DHT22;3884;48.616;12.872;2022-09-09T15:51:22;19.40;1.00
7684;DHT22;3884;48.616;12.872;2022-09-09T15:53:50;19.50;1.00
7684;DHT22;3884;48.616;12.872;2022-09-09T15:56:19;19.50;99.90
7684;DHT22;3884;48.616;12.872;2022-09-09T15:58:47;19.50;99.90
7684;DHT22;3884;48.616;12.872;2022-09-09T16:01:15;19.90;99.90
7684;DHT22;3884;48.616;12.872;2022-09-09T16:03:42;19.90;99.90
7684;DHT22;3884;48.616;12.872;2022-09-09T16:06:13;19.90;99.90
7684;DHT22;3884;48.616;12.872;2022-09-09T16:08:42;19.60;99.90
7684;DHT22;3884;48.616;12.872;2022-09-09T16:11:11;19.50;1.00
7684;DHT22;3884;48.616;12.872;2022-09-09T16:13:40;19.50;1.00
7684;DHT22;3884;48.616;12.872;2022-09-09T16:16:11;19.50;99.90
7684;DHT22;3884;48.616;12.872;2022-09-09T16:18:40;19.70;99.90
7684;DHT22;3884;48.616;12.872;2022-09-09T16:21:08;19.90;1.00